MSC Paola — 9HA2581 — position and weather

sailwx.info

Track history (hours):
 
Tides and Currents Weather Stations Pressure Air Temp Water Temp Dewpoint Dewpoint Depression Visibility Wind Speed Wind Dir Waves Ship Positions

MSC Paola

Last reported at 2017-Feb-25 00:33 UTC. Time now 2017-Feb-26 10:30 UTC.
Position N 37°28' W 009°13'.

Length 243 m; draft 12.6 m.

Type: Ship (hazmat cat A). MMSI: 248931000.

Date/timePositionNaut miles runAvg speedWind from/ knotsBaromVisibWave heightAir tempDewpointWater temp
2017-Feb-25 00:33N 37°28' W 009°13'1615.6
2017-Feb-24 23:34N 37°40' W 009°01'1514.8
2017-Feb-24 22:33N 37°52' W 008°51'4 3.5
2017-Feb-24 21:31N 37°56' W 008°51'0 0.0
2017-Feb-24 20:33N 37°56' W 008°51'0 0.0
2017-Feb-24 19:31N 37°56' W 008°51'0 0.0
2017-Feb-24 18:33N 37°56' W 008°51'0 0.0
2017-Feb-24 17:31N 37°56' W 008°51'0 0.0
2017-Feb-24 16:28N 37°56' W 008°51'0 0.0
2017-Feb-24 15:31N 37°56' W 008°51'0 0.0
2017-Feb-24 14:31N 37°56' W 008°51'0 0.0
2017-Feb-24 13:31N 37°56' W 008°51'0 0.0
2017-Feb-24 12:33N 37°56' W 008°51'0 0.0
2017-Feb-24 11:32N 37°56' W 008°51'0 0.0
2017-Feb-24 10:27N 37°56' W 008°51'0 0.0
2017-Feb-24 09:33N 37°56' W 008°51'0 0.0
2017-Feb-24 08:31N 37°56' W 008°51'0 0.0
2017-Feb-24 07:31N 37°56' W 008°51'0 0.0
2017-Feb-24 06:30N 37°56' W 008°51'0 0.0
2017-Feb-24 05:33N 37°56' W 008°51'0 0.0
2017-Feb-24 04:30N 37°56' W 008°51'0 0.0
2017-Feb-24 03:30N 37°56' W 008°51'0 0.0
2017-Feb-24 02:32N 37°56' W 008°51'0 0.0
2017-Feb-24 01:33N 37°56' W 008°51'0 0.0
2017-Feb-24 00:31N 37°56' W 008°51'0 0.0
2017-Feb-23 23:32N 37°56' W 008°51'0 0.0
2017-Feb-23 22:30N 37°56' W 008°51'0 0.0
2017-Feb-23 21:33N 37°56' W 008°51'0 0.0
2017-Feb-23 20:30N 37°56' W 008°51'0 0.0
2017-Feb-23 19:32N 37°56' W 008°51'0 0.0
2017-Feb-23 18:31N 37°56' W 008°51'0 0.0
2017-Feb-23 17:30N 37°56' W 008°51'0 0.0
2017-Feb-23 16:32N 37°56' W 008°51'0 0.0
2017-Feb-23 15:31N 37°56' W 008°51'0 0.0
2017-Feb-23 14:31N 37°56' W 008°51'0 0.0
2017-Feb-23 13:33N 37°56' W 008°51'0 0.0
2017-Feb-23 12:32N 37°56' W 008°51'0 0.0
2017-Feb-23 11:28N 37°56' W 008°51'0 0.0
2017-Feb-23 10:33N 37°56' W 008°51'0 0.0
2017-Feb-23 09:32N 37°56' W 008°51'0 0.0
2017-Feb-23 08:32N 37°56' W 008°51'0 0.0
2017-Feb-23 07:32N 37°56' W 008°51'0 0.0
2017-Feb-23 06:30N 37°56' W 008°51'0 0.0
2017-Feb-23 05:33N 37°56' W 008°51'0 0.0
2017-Feb-23 04:29N 37°56' W 008°51'0 0.0
2017-Feb-23 03:33N 37°56' W 008°51'0 0.0
2017-Feb-23 02:32N 37°56' W 008°51'0 0.0
2017-Feb-23 01:28N 37°56' W 008°51'0 0.0
2017-Feb-23 00:30N 37°56' W 008°51'0 0.0
2017-Feb-22 23:32N 37°56' W 008°51'0 0.0
2017-Feb-22 22:33N 37°56' W 008°51'0 0.0
2017-Feb-22 21:33N 37°56' W 008°51'0 0.0
2017-Feb-22 20:31N 37°56' W 008°51'0 0.0
2017-Feb-22 19:31N 37°56' W 008°51'0 0.0
2017-Feb-22 18:26N 37°56' W 008°51'0 0.0
2017-Feb-22 17:19N 37°56' W 008°51'0 0.0
2017-Feb-22 16:32N 37°56' W 008°51'0 0.0
2017-Feb-22 15:31N 37°56' W 008°51'0 0.0
2017-Feb-22 14:31N 37°56' W 008°51'0 0.0
2017-Feb-22 13:31N 37°56' W 008°51'0 0.0
2017-Feb-22 12:32N 37°56' W 008°51'2 2.3
2017-Feb-22 11:34N 37°54' W 008°50'5 5.0
2017-Feb-22 10:34N 37°55' W 008°56'0 0.5
2017-Feb-22 09:33N 37°55' W 008°57'1 1.3
2017-Feb-22 08:33N 37°53' W 008°57'8 8.3
2017-Feb-22 07:33N 37°45' W 008°56'18 8.8
2017-Feb-22 05:33N 37°29' W 009°05'9 8.5
2017-Feb-22 04:34N 37°21' W 009°09'8 8.0
2017-Feb-22 03:33N 37°14' W 009°14'186 8.9
2017-Feb-21 06:34N 35°57' W 005°43'1413.7
2017-Feb-21 05:33N 35°60' W 005°26'1414.0
2017-Feb-21 04:33N 36°02' W 005°09'21014.0
2017-Feb-20 13:33N 37°13' W 001°03'1919.3
2017-Feb-20 12:33N 37°26' W 000°45'1919.1
2017-Feb-20 11:33N 37°40' W 000°28'15518.7
2017-Feb-20 03:16N 39°53' E 001°12'1419.0
2017-Feb-20 02:33N 40°05' E 001°21'1919.4
2017-Feb-20 01:33N 40°22' E 001°32'1919.0
2017-Feb-20 00:33N 40°39' E 001°44'1818.3
2017-Feb-19 23:33N 40°55' E 001°56'8 6.7
2017-Feb-19 22:20N 41°02' E 002°02'0 0.2
2017-Feb-19 21:25N 41°02' E 002°02'0 0.4
2017-Feb-19 20:26N 41°01' E 002°01'1 1.2
2017-Feb-19 19:33N 41°01' E 001°60'1614.0
2017-Feb-19 18:24N 41°16' E 002°10'3 0.1
2017-Feb-18 21:32N 41°18' E 002°09'1 0.5
2017-Feb-18 18:33N 41°18' E 002°11'6 5.0
2017-Feb-18 17:20N 41°12' E 002°09'1 0.8
2017-Feb-18 16:32N 41°11' E 002°09'1313.6
2017-Feb-18 15:33N 40°60' E 002°01'2120.9
2017-Feb-18 14:33N 40°41' E 001°49'1717.3
2017-Feb-18 13:33N 40°25' E 001°39'1716.6
2017-Feb-18 12:33N 40°11' E 001°28'1716.5
2017-Feb-18 11:33N 39°56' E 001°18'16318.0
2017-Feb-18 02:32N 37°36' W 000°28'1919.0
2017-Feb-18 01:33N 37°22' W 000°43'22218.5
2017-Feb-17 13:33N 36°03' W 005°02'1919.2
2017-Feb-17 12:32N 35°58' W 005°25'2119.9
2017-Feb-17 11:28N 35°55' W 005°51'  
Track history (hours):
 
Tides and Currents Weather Stations Pressure Air Temp Water Temp Dewpoint Dewpoint Depression Visibility Wind Speed Wind Dir Waves Ship Positions

MSC Paola

Last reported at 2017-Feb-25 00:33 UTC. Time now 2017-Feb-26 10:30 UTC.
Position N 37°28' W 009°13'.

Length 243 m; draft 12.6 m.

Type: Ship (hazmat cat A). MMSI: 248931000.

Date/timePositionNaut miles runAvg speedWind from/ knotsBaromVisibWave heightAir tempDewpointWater temp
2017-Feb-25 00:33N 37°28' W 009°13'1615.6
2017-Feb-24 23:34N 37°40' W 009°01'1514.8
2017-Feb-24 22:33N 37°52' W 008°51'4 3.5
2017-Feb-24 21:31N 37°56' W 008°51'0 0.0
2017-Feb-24 20:33N 37°56' W 008°51'0 0.0
2017-Feb-24 19:31N 37°56' W 008°51'0 0.0
2017-Feb-24 18:33N 37°56' W 008°51'0 0.0
2017-Feb-24 17:31N 37°56' W 008°51'0 0.0
2017-Feb-24 16:28N 37°56' W 008°51'0 0.0
2017-Feb-24 15:31N 37°56' W 008°51'0 0.0
2017-Feb-24 14:31N 37°56' W 008°51'0 0.0
2017-Feb-24 13:31N 37°56' W 008°51'0 0.0
2017-Feb-24 12:33N 37°56' W 008°51'0 0.0
2017-Feb-24 11:32N 37°56' W 008°51'0 0.0
2017-Feb-24 10:27N 37°56' W 008°51'0 0.0
2017-Feb-24 09:33N 37°56' W 008°51'0 0.0
2017-Feb-24 08:31N 37°56' W 008°51'0 0.0
2017-Feb-24 07:31N 37°56' W 008°51'0 0.0
2017-Feb-24 06:30N 37°56' W 008°51'0 0.0
2017-Feb-24 05:33N 37°56' W 008°51'0 0.0
2017-Feb-24 04:30N 37°56' W 008°51'0 0.0
2017-Feb-24 03:30N 37°56' W 008°51'0 0.0
2017-Feb-24 02:32N 37°56' W 008°51'0 0.0
2017-Feb-24 01:33N 37°56' W 008°51'0 0.0
2017-Feb-24 00:31N 37°56' W 008°51'0 0.0
2017-Feb-23 23:32N 37°56' W 008°51'0 0.0
2017-Feb-23 22:30N 37°56' W 008°51'0 0.0
2017-Feb-23 21:33N 37°56' W 008°51'0 0.0
2017-Feb-23 20:30N 37°56' W 008°51'0 0.0
2017-Feb-23 19:32N 37°56' W 008°51'0 0.0
2017-Feb-23 18:31N 37°56' W 008°51'0 0.0
2017-Feb-23 17:30N 37°56' W 008°51'0 0.0
2017-Feb-23 16:32N 37°56' W 008°51'0 0.0
2017-Feb-23 15:31N 37°56' W 008°51'0 0.0
2017-Feb-23 14:31N 37°56' W 008°51'0 0.0
2017-Feb-23 13:33N 37°56' W 008°51'0 0.0
2017-Feb-23 12:32N 37°56' W 008°51'0 0.0
2017-Feb-23 11:28N 37°56' W 008°51'0 0.0
2017-Feb-23 10:33N 37°56' W 008°51'0 0.0
2017-Feb-23 09:32N 37°56' W 008°51'0 0.0
2017-Feb-23 08:32N 37°56' W 008°51'0 0.0
2017-Feb-23 07:32N 37°56' W 008°51'0 0.0
2017-Feb-23 06:30N 37°56' W 008°51'0 0.0
2017-Feb-23 05:33N 37°56' W 008°51'0 0.0
2017-Feb-23 04:29N 37°56' W 008°51'0 0.0
2017-Feb-23 03:33N 37°56' W 008°51'0 0.0
2017-Feb-23 02:32N 37°56' W 008°51'0 0.0
2017-Feb-23 01:28N 37°56' W 008°51'0 0.0
2017-Feb-23 00:30N 37°56' W 008°51'0 0.0
2017-Feb-22 23:32N 37°56' W 008°51'0 0.0
2017-Feb-22 22:33N 37°56' W 008°51'0 0.0
2017-Feb-22 21:33N 37°56' W 008°51'0 0.0
2017-Feb-22 20:31N 37°56' W 008°51'0 0.0
2017-Feb-22 19:31N 37°56' W 008°51'0 0.0
2017-Feb-22 18:26N 37°56' W 008°51'0 0.0
2017-Feb-22 17:19N 37°56' W 008°51'0 0.0
2017-Feb-22 16:32N 37°56' W 008°51'0 0.0
2017-Feb-22 15:31N 37°56' W 008°51'0 0.0
2017-Feb-22 14:31N 37°56' W 008°51'0 0.0
2017-Feb-22 13:31N 37°56' W 008°51'0 0.0
2017-Feb-22 12:32N 37°56' W 008°51'2 2.3
2017-Feb-22 11:34N 37°54' W 008°50'5 5.0
2017-Feb-22 10:34N 37°55' W 008°56'0 0.5
2017-Feb-22 09:33N 37°55' W 008°57'1 1.3
2017-Feb-22 08:33N 37°53' W 008°57'8 8.3
2017-Feb-22 07:33N 37°45' W 008°56'18 8.8
2017-Feb-22 05:33N 37°29' W 009°05'9 8.5
2017-Feb-22 04:34N 37°21' W 009°09'8 8.0
2017-Feb-22 03:33N 37°14' W 009°14'186 8.9
2017-Feb-21 06:34N 35°57' W 005°43'1413.7
2017-Feb-21 05:33N 35°60' W 005°26'1414.0
2017-Feb-21 04:33N 36°02' W 005°09'21014.0
2017-Feb-20 13:33N 37°13' W 001°03'1919.3
2017-Feb-20 12:33N 37°26' W 000°45'1919.1
2017-Feb-20 11:33N 37°40' W 000°28'15518.7
2017-Feb-20 03:16N 39°53' E 001°12'1419.0
2017-Feb-20 02:33N 40°05' E 001°21'1919.4
2017-Feb-20 01:33N 40°22' E 001°32'1919.0
2017-Feb-20 00:33N 40°39' E 001°44'1818.3
2017-Feb-19 23:33N 40°55' E 001°56'8 6.7
2017-Feb-19 22:20N 41°02' E 002°02'0 0.2
2017-Feb-19 21:25N 41°02' E 002°02'0 0.4
2017-Feb-19 20:26N 41°01' E 002°01'1 1.2
2017-Feb-19 19:33N 41°01' E 001°60'1614.0
2017-Feb-19 18:24N 41°16' E 002°10'3 0.1
2017-Feb-18 21:32N 41°18' E 002°09'1 0.5
2017-Feb-18 18:33N 41°18' E 002°11'6 5.0
2017-Feb-18 17:20N 41°12' E 002°09'1 0.8
2017-Feb-18 16:32N 41°11' E 002°09'1313.6
2017-Feb-18 15:33N 40°60' E 002°01'2120.9
2017-Feb-18 14:33N 40°41' E 001°49'1717.3
2017-Feb-18 13:33N 40°25' E 001°39'1716.6
2017-Feb-18 12:33N 40°11' E 001°28'1716.5
2017-Feb-18 11:33N 39°56' E 001°18'16318.0
2017-Feb-18 02:32N 37°36' W 000°28'1919.0
2017-Feb-18 01:33N 37°22' W 000°43'22218.5
2017-Feb-17 13:33N 36°03' W 005°02'1919.2
2017-Feb-17 12:32N 35°58' W 005°25'2119.9
2017-Feb-17 11:28N 35°55' W 005°51'  

Dump ship's entire track history